sensor_id;sensor_type;location;lat;lon;timestamp;P1;durP1;ratioP1;P2;durP2;ratioP2
3708;SDS011;1870;53.996;10.784;2023-05-10T00:00:50;4.33;;;3.93;;
3708;SDS011;1870;53.996;10.784;2023-05-10T00:03:16;5.50;;;4.03;;
3708;SDS011;1870;53.996;10.784;2023-05-10T00:05:42;6.13;;;3.97;;
3708;SDS011;1870;53.996;10.784;2023-05-10T00:08:07;5.20;;;4.40;;
3708;SDS011;1870;53.996;10.784;2023-05-10T00:10:33;4.57;;;4.17;;
3708;SDS011;1870;53.996;10.784;2023-05-10T00:12:59;4.73;;;4.23;;
3708;SDS011;1870;53.996;10.784;2023-05-10T00:15:25;6.30;;;4.30;;
3708;SDS011;1870;53.996;10.784;2023-05-10T00:17:50;4.70;;;3.60;;
3708;SDS011;1870;53.996;10.784;2023-05-10T00:20:16;7.10;;;5.20;;
3708;SDS011;1870;53.996;10.784;2023-05-10T00:22:41;5.17;;;4.40;;
3708;SDS011;1870;53.996;10.784;2023-05-10T00:25:07;6.53;;;4.20;;
3708;SDS011;1870;53.996;10.784;2023-05-10T00:27:34;5.60;;;4.53;;
3708;SDS011;1870;53.996;10.784;2023-05-10T00:29:59;5.37;;;4.40;;
3708;SDS011;1870;53.996;10.784;2023-05-10T00:32:25;4.83;;;3.77;;
3708;SDS011;1870;53.996;10.784;2023-05-10T00:34:51;5.20;;;4.33;;
3708;SDS011;1870;53.996;10.784;2023-05-10T00:37:18;6.60;;;4.80;;
3708;SDS011;1870;53.996;10.784;2023-05-10T00:39:43;5.47;;;4.50;;
3708;SDS011;1870;53.996;10.784;2023-05-10T00:42:09;4.93;;;4.43;;
3708;SDS011;1870;53.996;10.784;2023-05-10T00:44:35;6.47;;;4.70;;
3708;SDS011;1870;53.996;10.784;2023-05-10T00:47:00;7.10;;;4.70;;
3708;SDS011;1870;53.996;10.784;2023-05-10T00:49:26;8.73;;;4.80;;
3708;SDS011;1870;53.996;10.784;2023-05-10T00:51:52;5.60;;;4.53;;
3708;SDS011;1870;53.996;10.784;2023-05-10T00:54:18;5.10;;;4.60;;
3708;SDS011;1870;53.996;10.784;2023-05-10T00:56:44;6.20;;;4.60;;
3708;SDS011;1870;53.996;10.784;2023-05-10T00:59:14;5.00;;;3.97;;
3708;SDS011;1870;53.996;10.784;2023-05-10T01:01:42;9.33;;;4.47;;
3708;SDS011;1870;53.996;10.784;2023-05-10T01:04:08;6.77;;;4.40;;
3708;SDS011;1870;53.996;10.784;2023-05-10T01:06:35;6.40;;;4.73;;
3708;SDS011;1870;53.996;10.784;2023-05-10T01:09:01;5.20;;;4.70;;
3708;SDS011;1870;53.996;10.784;2023-05-10T01:11:27;11.43;;;5.40;;
3708;SDS011;1870;53.996;10.784;2023-05-10T01:13:55;5.60;;;4.40;;
3708;SDS011;1870;53.996;10.784;2023-05-10T01:16:22;10.10;;;4.77;;
3708;SDS011;1870;53.996;10.784;2023-05-10T01:18:49;5.40;;;3.97;;
3708;SDS011;1870;53.996;10.784;2023-05-10T01:21:23;5.17;;;4.60;;
3708;SDS011;1870;53.996;10.784;2023-05-10T01:24:23;5.20;;;4.37;;
3708;SDS011;1870;53.996;10.784;2023-05-10T01:29:47;5.07;;;4.20;;
3708;SDS011;1870;53.996;10.784;2023-05-10T01:35:02;4.87;;;4.37;;
3708;SDS011;1870;53.996;10.784;2023-05-10T01:37:41;6.67;;;4.97;;
3708;SDS011;1870;53.996;10.784;2023-05-10T01:40:32;5.40;;;4.90;;
3708;SDS011;1870;53.996;10.784;2023-05-10T01:43:07;5.67;;;3.93;;
3708;SDS011;1870;53.996;10.784;2023-05-10T01:45:41;5.90;;;3.87;;
3708;SDS011;1870;53.996;10.784;2023-05-10T01:48:17;8.00;;;5.33;;
3708;SDS011;1870;53.996;10.784;2023-05-10T01:50:45;6.53;;;4.40;;
3708;SDS011;1870;53.996;10.784;2023-05-10T01:53:18;7.63;;;4.97;;
3708;SDS011;1870;53.996;10.784;2023-05-10T01:55:49;4.40;;;4.00;;
3708;SDS011;1870;53.996;10.784;2023-05-10T01:58:21;8.30;;;4.43;;
3708;SDS011;1870;53.996;10.784;2023-05-10T02:00:50;6.03;;;5.17;;
3708;SDS011;1870;53.996;10.784;2023-05-10T02:03:18;5.80;;;4.60;;
3708;SDS011;1870;53.996;10.784;2023-05-10T02:05:48;6.47;;;5.87;;
3708;SDS011;1870;53.996;10.784;2023-05-10T02:08:15;7.10;;;4.50;;
3708;SDS011;1870;53.996;10.784;2023-05-10T02:10:44;6.07;;;4.57;;
3708;SDS011;1870;53.996;10.784;2023-05-10T02:13:11;5.80;;;4.43;;
3708;SDS011;1870;53.996;10.784;2023-05-10T02:15:38;6.90;;;4.70;;
3708;SDS011;1870;53.996;10.784;2023-05-10T02:18:06;6.07;;;4.60;;
3708;SDS011;1870;53.996;10.784;2023-05-10T02:20:34;5.73;;;5.10;;
3708;SDS011;1870;53.996;10.784;2023-05-10T02:23:00;10.30;;;5.23;;
3708;SDS011;1870;53.996;10.784;2023-05-10T02:25:28;12.30;;;5.60;;
3708;SDS011;1870;53.996;10.784;2023-05-10T02:27:55;7.70;;;4.70;;
3708;SDS011;1870;53.996;10.784;2023-05-10T02:30:25;5.70;;;4.90;;
3708;SDS011;1870;53.996;10.784;2023-05-10T02:32:51;6.90;;;4.87;;
3708;SDS011;1870;53.996;10.784;2023-05-10T02:35:18;5.50;;;5.00;;
3708;SDS011;1870;53.996;10.784;2023-05-10T02:37:44;8.20;;;4.67;;
3708;SDS011;1870;53.996;10.784;2023-05-10T02:40:11;8.40;;;4.60;;
3708;SDS011;1870;53.996;10.784;2023-05-10T02:42:41;8.67;;;4.90;;
3708;SDS011;1870;53.996;10.784;2023-05-10T02:45:11;5.00;;;4.50;;
3708;SDS011;1870;53.996;10.784;2023-05-10T02:47:38;5.27;;;4.33;;
3708;SDS011;1870;53.996;10.784;2023-05-10T02:50:06;9.97;;;5.63;;
3708;SDS011;1870;53.996;10.784;2023-05-10T02:52:38;6.93;;;4.90;;
3708;SDS011;1870;53.996;10.784;2023-05-10T02:55:05;5.93;;;5.00;;
3708;SDS011;1870;53.996;10.784;2023-05-10T02:57:34;7.37;;;5.50;;
3708;SDS011;1870;53.996;10.784;2023-05-10T03:00:03;6.50;;;5.63;;
3708;SDS011;1870;53.996;10.784;2023-05-10T03:02:30;5.80;;;5.10;;
3708;SDS011;1870;53.996;10.784;2023-05-10T03:04:56;6.50;;;4.93;;
3708;SDS011;1870;53.996;10.784;2023-05-10T03:07:21;7.43;;;6.53;;
3708;SDS011;1870;53.996;10.784;2023-05-10T03:09:50;6.90;;;5.40;;
3708;SDS011;1870;53.996;10.784;2023-05-10T03:15:07;6.10;;;5.50;;
3708;SDS011;1870;53.996;10.784;2023-05-10T03:20:43;6.83;;;5.70;;
3708;SDS011;1870;53.996;10.784;2023-05-10T03:25:43;6.43;;;5.63;;
3708;SDS011;1870;53.996;10.784;2023-05-10T03:28:11;8.23;;;5.40;;
3708;SDS011;1870;53.996;10.784;2023-05-10T03:30:39;7.37;;;6.00;;
3708;SDS011;1870;53.996;10.784;2023-05-10T03:33:06;15.20;;;5.47;;
3708;SDS011;1870;53.996;10.784;2023-05-10T03:35:32;6.20;;;5.60;;
3708;SDS011;1870;53.996;10.784;2023-05-10T03:37:58;7.97;;;5.90;;
3708;SDS011;1870;53.996;10.784;2023-05-10T03:40:24;7.27;;;5.90;;
3708;SDS011;1870;53.996;10.784;2023-05-10T03:42:51;7.47;;;5.83;;
3708;SDS011;1870;53.996;10.784;2023-05-10T03:45:16;6.00;;;5.40;;
3708;SDS011;1870;53.996;10.784;2023-05-10T03:47:42;6.70;;;5.47;;
3708;SDS011;1870;53.996;10.784;2023-05-10T03:50:07;7.73;;;5.83;;
3708;SDS011;1870;53.996;10.784;2023-05-10T03:52:33;8.87;;;5.90;;
3708;SDS011;1870;53.996;10.784;2023-05-10T03:54:59;7.97;;;5.70;;
3708;SDS011;1870;53.996;10.784;2023-05-10T03:57:24;8.63;;;6.03;;
3708;SDS011;1870;53.996;10.784;2023-05-10T03:59:50;7.90;;;5.30;;
3708;SDS011;1870;53.996;10.784;2023-05-10T04:02:15;7.40;;;6.13;;
3708;SDS011;1870;53.996;10.784;2023-05-10T04:04:41;8.50;;;6.17;;
3708;SDS011;1870;53.996;10.784;2023-05-10T04:07:07;8.27;;;5.80;;
3708;SDS011;1870;53.996;10.784;2023-05-10T04:09:34;8.27;;;6.30;;
3708;SDS011;1870;53.996;10.784;2023-05-10T04:12:00;7.67;;;6.90;;
3708;SDS011;1870;53.996;10.784;2023-05-10T04:14:27;8.00;;;6.30;;
3708;SDS011;1870;53.996;10.784;2023-05-10T04:16:53;8.30;;;6.43;;
3708;SDS011;1870;53.996;10.784;2023-05-10T04:19:18;7.77;;;6.00;;
3708;SDS011;1870;53.996;10.784;2023-05-10T04:21:46;7.60;;;6.20;;
3708;SDS011;1870;53.996;10.784;2023-05-10T04:24:12;8.70;;;6.23;;
3708;SDS011;1870;53.996;10.784;2023-05-10T04:26:38;9.33;;;6.53;;
3708;SDS011;1870;53.996;10.784;2023-05-10T04:29:03;7.23;;;5.97;;
3708;SDS011;1870;53.996;10.784;2023-05-10T04:31:29;8.90;;;5.53;;
3708;SDS011;1870;53.996;10.784;2023-05-10T04:33:55;6.97;;;6.23;;
3708;SDS011;1870;53.996;10.784;2023-05-10T04:36:20;7.10;;;6.40;;
3708;SDS011;1870;53.996;10.784;2023-05-10T04:38:46;9.60;;;6.50;;
3708;SDS011;1870;53.996;10.784;2023-05-10T04:41:12;7.47;;;5.80;;
3708;SDS011;1870;53.996;10.784;2023-05-10T04:43:37;7.43;;;5.60;;
3708;SDS011;1870;53.996;10.784;2023-05-10T04:46:04;14.03;;;6.80;;
3708;SDS011;1870;53.996;10.784;2023-05-10T04:48:30;9.37;;;5.80;;
3708;SDS011;1870;53.996;10.784;2023-05-10T04:50:56;6.93;;;6.20;;
3708;SDS011;1870;53.996;10.784;2023-05-10T04:53:22;7.03;;;6.23;;
3708;SDS011;1870;53.996;10.784;2023-05-10T04:55:47;6.30;;;5.30;;
3708;SDS011;1870;53.996;10.784;2023-05-10T04:58:14;7.17;;;5.73;;
3708;SDS011;1870;53.996;10.784;2023-05-10T05:00:40;9.17;;;6.70;;
3708;SDS011;1870;53.996;10.784;2023-05-10T05:03:05;8.03;;;5.40;;
3708;SDS011;1870;53.996;10.784;2023-05-10T05:05:31;8.47;;;6.53;;
3708;SDS011;1870;53.996;10.784;2023-05-10T05:07:59;7.80;;;5.93;;
3708;SDS011;1870;53.996;10.784;2023-05-10T05:10:25;7.03;;;6.33;;
3708;SDS011;1870;53.996;10.784;2023-05-10T05:12:51;11.90;;;6.00;;
3708;SDS011;1870;53.996;10.784;2023-05-10T05:15:16;7.80;;;5.83;;
3708;SDS011;1870;53.996;10.784;2023-05-10T05:17:42;7.67;;;5.70;;
3708;SDS011;1870;53.996;10.784;2023-05-10T05:20:08;8.53;;;6.10;;
3708;SDS011;1870;53.996;10.784;2023-05-10T05:22:38;11.07;;;7.63;;
3708;SDS011;1870;53.996;10.784;2023-05-10T05:25:04;7.57;;;6.23;;
3708;SDS011;1870;53.996;10.784;2023-05-10T05:27:30;7.47;;;5.80;;
3708;SDS011;1870;53.996;10.784;2023-05-10T05:29:56;8.60;;;6.27;;
3708;SDS011;1870;53.996;10.784;2023-05-10T05:32:23;6.90;;;6.27;;
3708;SDS011;1870;53.996;10.784;2023-05-10T05:34:49;6.90;;;6.20;;
3708;SDS011;1870;53.996;10.784;2023-05-10T05:37:15;8.27;;;6.17;;
3708;SDS011;1870;53.996;10.784;2023-05-10T05:39:45;8.27;;;5.33;;
3708;SDS011;1870;53.996;10.784;2023-05-10T05:42:11;7.63;;;6.83;;
3708;SDS011;1870;53.996;10.784;2023-05-10T05:44:37;6.93;;;6.23;;
3708;SDS011;1870;53.996;10.784;2023-05-10T05:47:03;7.50;;;6.10;;
3708;SDS011;1870;53.996;10.784;2023-05-10T05:49:29;6.50;;;5.73;;
3708;SDS011;1870;53.996;10.784;2023-05-10T05:52:01;15.03;;;6.20;;
3708;SDS011;1870;53.996;10.784;2023-05-10T05:54:28;6.67;;;6.03;;
3708;SDS011;1870;53.996;10.784;2023-05-10T05:56:54;6.73;;;6.07;;
3708;SDS011;1870;53.996;10.784;2023-05-10T05:59:23;7.87;;;5.97;;
3708;SDS011;1870;53.996;10.784;2023-05-10T06:01:49;9.10;;;7.40;;
3708;SDS011;1870;53.996;10.784;2023-05-10T06:04:15;8.07;;;6.80;;
3708;SDS011;1870;53.996;10.784;2023-05-10T06:06:41;8.83;;;6.90;;
3708;SDS011;1870;53.996;10.784;2023-05-10T06:09:07;9.53;;;6.13;;
3708;SDS011;1870;53.996;10.784;2023-05-10T06:11:33;9.60;;;6.63;;
3708;SDS011;1870;53.996;10.784;2023-05-10T06:13:59;10.40;;;7.13;;
3708;SDS011;1870;53.996;10.784;2023-05-10T06:16:26;10.60;;;7.50;;
3708;SDS011;1870;53.996;10.784;2023-05-10T06:18:52;8.63;;;7.83;;
3708;SDS011;1870;53.996;10.784;2023-05-10T06:21:17;7.40;;;6.70;;
3708;SDS011;1870;53.996;10.784;2023-05-10T06:23:43;7.80;;;7.00;;
3708;SDS011;1870;53.996;10.784;2023-05-10T06:26:09;9.47;;;7.00;;
3708;SDS011;1870;53.996;10.784;2023-05-10T06:28:35;11.07;;;6.87;;
3708;SDS011;1870;53.996;10.784;2023-05-10T06:31:03;7.77;;;6.80;;
3708;SDS011;1870;53.996;10.784;2023-05-10T06:33:29;9.03;;;6.63;;
3708;SDS011;1870;53.996;10.784;2023-05-10T06:35:55;6.37;;;5.77;;
3708;SDS011;1870;53.996;10.784;2023-05-10T06:38:21;7.40;;;6.70;;
3708;SDS011;1870;53.996;10.784;2023-05-10T06:40:46;7.70;;;6.20;;
3708;SDS011;1870;53.996;10.784;2023-05-10T06:43:12;7.80;;;6.87;;
3708;SDS011;1870;53.996;10.784;2023-05-10T06:45:38;7.67;;;6.87;;
3708;SDS011;1870;53.996;10.784;2023-05-10T06:48:04;8.47;;;6.53;;
3708;SDS011;1870;53.996;10.784;2023-05-10T06:50:30;9.30;;;7.50;;
3708;SDS011;1870;53.996;10.784;2023-05-10T06:52:55;7.40;;;6.70;;
3708;SDS011;1870;53.996;10.784;2023-05-10T06:55:21;6.97;;;6.27;;
3708;SDS011;1870;53.996;10.784;2023-05-10T06:57:47;8.70;;;6.20;;
3708;SDS011;1870;53.996;10.784;2023-05-10T07:00:13;27.07;;;12.67;;
3708;SDS011;1870;53.996;10.784;2023-05-10T07:02:39;9.70;;;6.20;;
3708;SDS011;1870;53.996;10.784;2023-05-10T07:05:05;6.87;;;6.17;;
3708;SDS011;1870;53.996;10.784;2023-05-10T07:07:31;6.47;;;5.57;;
3708;SDS011;1870;53.996;10.784;2023-05-10T07:09:56;9.20;;;5.93;;
3708;SDS011;1870;53.996;10.784;2023-05-10T07:12:23;15.83;;;8.90;;
3708;SDS011;1870;53.996;10.784;2023-05-10T07:14:49;7.50;;;6.80;;
3708;SDS011;1870;53.996;10.784;2023-05-10T07:17:14;8.47;;;6.13;;
3708;SDS011;1870;53.996;10.784;2023-05-10T07:19:40;7.30;;;6.20;;
3708;SDS011;1870;53.996;10.784;2023-05-10T07:22:06;8.90;;;6.23;;
3708;SDS011;1870;53.996;10.784;2023-05-10T07:24:32;10.33;;;7.00;;
3708;SDS011;1870;53.996;10.784;2023-05-10T07:26:58;7.87;;;7.03;;
3708;SDS011;1870;53.996;10.784;2023-05-10T07:29:24;9.37;;;6.77;;
3708;SDS011;1870;53.996;10.784;2023-05-10T07:31:50;7.83;;;6.40;;
3708;SDS011;1870;53.996;10.784;2023-05-10T07:34:15;9.30;;;7.30;;
3708;SDS011;1870;53.996;10.784;2023-05-10T07:36:41;7.00;;;6.40;;
3708;SDS011;1870;53.996;10.784;2023-05-10T07:39:07;7.10;;;6.40;;
3708;SDS011;1870;53.996;10.784;2023-05-10T07:41:32;7.23;;;6.57;;
3708;SDS011;1870;53.996;10.784;2023-05-10T07:43:58;11.13;;;6.30;;
3708;SDS011;1870;53.996;10.784;2023-05-10T07:46:24;7.90;;;6.00;;
3708;SDS011;1870;53.996;10.784;2023-05-10T07:48:49;7.23;;;5.83;;
3708;SDS011;1870;53.996;10.784;2023-05-10T07:51:15;9.27;;;6.40;;
3708;SDS011;1870;53.996;10.784;2023-05-10T07:53:41;8.10;;;6.30;;
3708;SDS011;1870;53.996;10.784;2023-05-10T07:56:20;6.87;;;6.20;;
3708;SDS011;1870;53.996;10.784;2023-05-10T07:59:03;9.13;;;6.03;;
3708;SDS011;1870;53.996;10.784;2023-05-10T08:01:31;6.90;;;6.13;;
3708;SDS011;1870;53.996;10.784;2023-05-10T08:03:58;6.83;;;6.10;;
3708;SDS011;1870;53.996;10.784;2023-05-10T08:06:23;7.50;;;6.50;;
3708;SDS011;1870;53.996;10.784;2023-05-10T08:08:51;9.13;;;6.90;;
3708;SDS011;1870;53.996;10.784;2023-05-10T08:11:18;7.10;;;6.50;;
3708;SDS011;1870;53.996;10.784;2023-05-10T08:13:45;8.60;;;7.70;;
3708;SDS011;1870;53.996;10.784;2023-05-10T08:16:12;7.47;;;6.80;;
3708;SDS011;1870;53.996;10.784;2023-05-10T08:18:38;7.00;;;6.30;;
3708;SDS011;1870;53.996;10.784;2023-05-10T08:21:04;7.83;;;6.17;;
3708;SDS011;1870;53.996;10.784;2023-05-10T08:23:30;6.83;;;6.23;;
3708;SDS011;1870;53.996;10.784;2023-05-10T08:25:56;9.40;;;7.03;;
3708;SDS011;1870;53.996;10.784;2023-05-10T08:28:21;16.67;;;7.93;;
3708;SDS011;1870;53.996;10.784;2023-05-10T08:30:47;7.87;;;6.40;;
3708;SDS011;1870;53.996;10.784;2023-05-10T08:33:14;11.67;;;6.70;;
3708;SDS011;1870;53.996;10.784;2023-05-10T08:35:40;6.97;;;6.27;;
3708;SDS011;1870;53.996;10.784;2023-05-10T08:38:06;8.03;;;6.13;;
3708;SDS011;1870;53.996;10.784;2023-05-10T08:40:32;8.40;;;6.90;;
3708;SDS011;1870;53.996;10.784;2023-05-10T08:43:05;7.10;;;6.50;;
3708;SDS011;1870;53.996;10.784;2023-05-10T08:45:41;6.97;;;6.10;;
3708;SDS011;1870;53.996;10.784;2023-05-10T08:48:10;8.07;;;6.30;;
3708;SDS011;1870;53.996;10.784;2023-05-10T08:50:37;9.37;;;6.80;;
3708;SDS011;1870;53.996;10.784;2023-05-10T08:53:09;6.90;;;6.27;;
3708;SDS011;1870;53.996;10.784;2023-05-10T08:55:36;9.50;;;6.57;;
3708;SDS011;1870;53.996;10.784;2023-05-10T08:58:06;9.33;;;6.97;;
3708;SDS011;1870;53.996;10.784;2023-05-10T09:00:32;7.53;;;6.10;;
3708;SDS011;1870;53.996;10.784;2023-05-10T09:02:59;6.57;;;5.93;;
3708;SDS011;1870;53.996;10.784;2023-05-10T09:05:25;8.07;;;6.33;;
3708;SDS011;1870;53.996;10.784;2023-05-10T09:07:51;12.40;;;6.77;;
3708;SDS011;1870;53.996;10.784;2023-05-10T09:10:17;8.50;;;6.93;;
3708;SDS011;1870;53.996;10.784;2023-05-10T09:12:44;7.77;;;7.10;;
3708;SDS011;1870;53.996;10.784;2023-05-10T09:15:10;9.83;;;7.60;;
3708;SDS011;1870;53.996;10.784;2023-05-10T09:17:38;8.00;;;7.17;;
3708;SDS011;1870;53.996;10.784;2023-05-10T09:20:05;7.47;;;6.67;;
3708;SDS011;1870;53.996;10.784;2023-05-10T09:22:31;6.97;;;6.37;;
3708;SDS011;1870;53.996;10.784;2023-05-10T09:25:07;10.97;;;6.90;;
3708;SDS011;1870;53.996;10.784;2023-05-10T09:27:33;6.93;;;6.33;;
3708;SDS011;1870;53.996;10.784;2023-05-10T09:29:59;8.50;;;6.37;;
3708;SDS011;1870;53.996;10.784;2023-05-10T09:32:42;11.40;;;6.33;;
3708;SDS011;1870;53.996;10.784;2023-05-10T09:35:16;7.43;;;6.73;;
3708;SDS011;1870;53.996;10.784;2023-05-10T09:37:45;14.13;;;6.97;;
3708;SDS011;1870;53.996;10.784;2023-05-10T09:40:22;7.00;;;6.30;;
3708;SDS011;1870;53.996;10.784;2023-05-10T09:42:58;9.00;;;5.87;;
3708;SDS011;1870;53.996;10.784;2023-05-10T09:45:34;12.10;;;5.90;;
3708;SDS011;1870;53.996;10.784;2023-05-10T09:48:00;7.13;;;6.30;;
3708;SDS011;1870;53.996;10.784;2023-05-10T09:50:27;6.07;;;5.47;;
3708;SDS011;1870;53.996;10.784;2023-05-10T09:52:54;8.03;;;6.60;;
3708;SDS011;1870;53.996;10.784;2023-05-10T09:55:46;10.17;;;6.30;;
3708;SDS011;1870;53.996;10.784;2023-05-10T09:58:12;6.93;;;6.30;;
3708;SDS011;1870;53.996;10.784;2023-05-10T10:00:39;8.30;;;6.40;;
3708;SDS011;1870;53.996;10.784;2023-05-10T10:03:11;9.40;;;6.33;;
3708;SDS011;1870;53.996;10.784;2023-05-10T10:05:42;7.97;;;6.47;;
3708;SDS011;1870;53.996;10.784;2023-05-10T10:08:09;10.13;;;6.03;;
3708;SDS011;1870;53.996;10.784;2023-05-10T10:10:35;6.97;;;6.27;;
3708;SDS011;1870;53.996;10.784;2023-05-10T10:13:01;9.83;;;6.10;;
3708;SDS011;1870;53.996;10.784;2023-05-10T10:15:27;7.80;;;7.00;;
3708;SDS011;1870;53.996;10.784;2023-05-10T10:17:53;6.90;;;6.20;;
3708;SDS011;1870;53.996;10.784;2023-05-10T10:20:19;7.40;;;6.60;;
3708;SDS011;1870;53.996;10.784;2023-05-10T10:22:47;7.17;;;6.57;;
3708;SDS011;1870;53.996;10.784;2023-05-10T10:25:13;11.73;;;6.83;;
3708;SDS011;1870;53.996;10.784;2023-05-10T10:27:48;7.47;;;6.43;;
3708;SDS011;1870;53.996;10.784;2023-05-10T10:36:01;7.40;;;6.63;;
3708;SDS011;1870;53.996;10.784;2023-05-10T10:38:38;6.60;;;6.10;;
3708;SDS011;1870;53.996;10.784;2023-05-10T10:41:34;7.20;;;6.10;;
3708;SDS011;1870;53.996;10.784;2023-05-10T10:46:59;7.87;;;6.80;;
3708;SDS011;1870;53.996;10.784;2023-05-10T10:55:10;13.97;;;6.87;;
3708;SDS011;1870;53.996;10.784;2023-05-10T10:57:44;7.33;;;6.30;;
3708;SDS011;1870;53.996;10.784;2023-05-10T11:00:27;6.70;;;6.10;;
3708;SDS011;1870;53.996;10.784;2023-05-10T11:05:46;6.80;;;6.20;;
3708;SDS011;1870;53.996;10.784;2023-05-10T11:08:14;9.63;;;7.40;;
3708;SDS011;1870;53.996;10.784;2023-05-10T11:16:12;7.30;;;6.57;;
3708;SDS011;1870;53.996;10.784;2023-05-10T11:18:38;8.20;;;7.30;;
3708;SDS011;1870;53.996;10.784;2023-05-10T11:21:04;7.97;;;7.30;;
3708;SDS011;1870;53.996;10.784;2023-05-10T11:26:22;8.20;;;6.83;;
3708;SDS011;1870;53.996;10.784;2023-05-10T11:28:50;8.20;;;6.80;;
3708;SDS011;1870;53.996;10.784;2023-05-10T11:31:20;9.00;;;8.20;;
3708;SDS011;1870;53.996;10.784;2023-05-10T11:33:47;11.50;;;6.83;;
3708;SDS011;1870;53.996;10.784;2023-05-10T11:36:14;7.10;;;6.40;;
3708;SDS011;1870;53.996;10.784;2023-05-10T11:38:45;8.07;;;7.27;;
3708;SDS011;1870;53.996;10.784;2023-05-10T11:41:12;7.23;;;6.63;;
3708;SDS011;1870;53.996;10.784;2023-05-10T11:43:41;8.63;;;7.83;;
3708;SDS011;1870;53.996;10.784;2023-05-10T11:46:11;8.40;;;6.93;;
3708;SDS011;1870;53.996;10.784;2023-05-10T11:48:38;7.13;;;6.63;;
3708;SDS011;1870;53.996;10.784;2023-05-10T11:51:05;7.23;;;6.47;;
3708;SDS011;1870;53.996;10.784;2023-05-10T11:53:32;12.23;;;6.93;;
3708;SDS011;1870;53.996;10.784;2023-05-10T11:56:08;6.93;;;6.23;;
3708;SDS011;1870;53.996;10.784;2023-05-10T11:58:35;6.73;;;6.03;;
3708;SDS011;1870;53.996;10.784;2023-05-10T12:01:02;7.97;;;6.63;;
3708;SDS011;1870;53.996;10.784;2023-05-10T12:03:30;7.13;;;6.47;;
3708;SDS011;1870;53.996;10.784;2023-05-10T12:05:57;8.27;;;7.43;;
3708;SDS011;1870;53.996;10.784;2023-05-10T12:08:24;12.83;;;6.87;;
3708;SDS011;1870;53.996;10.784;2023-05-10T12:10:51;9.57;;;7.13;;
3708;SDS011;1870;53.996;10.784;2023-05-10T12:13:17;7.37;;;6.23;;
3708;SDS011;1870;53.996;10.784;2023-05-10T12:15:45;6.87;;;6.17;;
3708;SDS011;1870;53.996;10.784;2023-05-10T12:18:11;8.00;;;7.20;;
3708;SDS011;1870;53.996;10.784;2023-05-10T12:20:38;7.20;;;6.50;;
3708;SDS011;1870;53.996;10.784;2023-05-10T12:23:04;8.20;;;6.50;;
3708;SDS011;1870;53.996;10.784;2023-05-10T12:25:31;7.17;;;5.97;;
3708;SDS011;1870;53.996;10.784;2023-05-10T12:27:58;6.53;;;5.70;;
3708;SDS011;1870;53.996;10.784;2023-05-10T12:30:29;6.43;;;5.90;;
3708;SDS011;1870;53.996;10.784;2023-05-10T12:33:30;6.70;;;6.00;;
3708;SDS011;1870;53.996;10.784;2023-05-10T12:35:49;5.87;;;5.33;;
3708;SDS011;1870;53.996;10.784;2023-05-10T12:41:02;5.63;;;5.10;;
3708;SDS011;1870;53.996;10.784;2023-05-10T12:43:29;7.70;;;6.93;;
3708;SDS011;1870;53.996;10.784;2023-05-10T12:45:55;7.97;;;5.80;;
3708;SDS011;1870;53.996;10.784;2023-05-10T12:48:21;6.33;;;5.67;;
3708;SDS011;1870;53.996;10.784;2023-05-10T12:50:47;6.63;;;5.93;;
3708;SDS011;1870;53.996;10.784;2023-05-10T12:53:16;7.43;;;5.73;;
3708;SDS011;1870;53.996;10.784;2023-05-10T12:55:42;6.57;;;5.97;;
3708;SDS011;1870;53.996;10.784;2023-05-10T12:58:08;6.63;;;6.03;;
3708;SDS011;1870;53.996;10.784;2023-05-10T13:00:34;6.60;;;6.00;;
3708;SDS011;1870;53.996;10.784;2023-05-10T13:03:03;8.80;;;6.63;;
3708;SDS011;1870;53.996;10.784;2023-05-10T13:05:31;6.80;;;5.80;;
3708;SDS011;1870;53.996;10.784;2023-05-10T13:07:57;5.97;;;5.47;;
3708;SDS011;1870;53.996;10.784;2023-05-10T13:10:23;9.60;;;7.40;;
3708;SDS011;1870;53.996;10.784;2023-05-10T13:12:50;9.63;;;7.43;;
3708;SDS011;1870;53.996;10.784;2023-05-10T13:15:15;10.47;;;8.70;;
3708;SDS011;1870;53.996;10.784;2023-05-10T13:17:42;10.10;;;9.00;;
3708;SDS011;1870;53.996;10.784;2023-05-10T13:20:08;15.10;;;9.17;;
3708;SDS011;1870;53.996;10.784;2023-05-10T13:22:34;10.20;;;7.70;;
3708;SDS011;1870;53.996;10.784;2023-05-10T13:25:00;9.70;;;8.80;;
3708;SDS011;1870;53.996;10.784;2023-05-10T13:27:26;12.47;;;8.43;;
3708;SDS011;1870;53.996;10.784;2023-05-10T13:29:52;13.23;;;8.80;;
3708;SDS011;1870;53.996;10.784;2023-05-10T13:32:18;11.73;;;9.10;;
3708;SDS011;1870;53.996;10.784;2023-05-10T13:34:44;10.10;;;9.07;;
3708;SDS011;1870;53.996;10.784;2023-05-10T13:37:09;12.43;;;9.47;;
3708;SDS011;1870;53.996;10.784;2023-05-10T13:39:35;13.77;;;10.33;;
3708;SDS011;1870;53.996;10.784;2023-05-10T13:42:02;10.57;;;9.47;;
3708;SDS011;1870;53.996;10.784;2023-05-10T13:44:28;15.20;;;11.13;;
3708;SDS011;1870;53.996;10.784;2023-05-10T13:46:54;14.80;;;9.87;;
3708;SDS011;1870;53.996;10.784;2023-05-10T13:49:20;11.90;;;9.83;;
3708;SDS011;1870;53.996;10.784;2023-05-10T13:51:47;10.57;;;9.57;;
3708;SDS011;1870;53.996;10.784;2023-05-10T13:54:12;16.23;;;10.30;;
3708;SDS011;1870;53.996;10.784;2023-05-10T13:56:38;12.43;;;9.90;;
3708;SDS011;1870;53.996;10.784;2023-05-10T13:59:05;10.87;;;9.60;;
3708;SDS011;1870;53.996;10.784;2023-05-10T14:01:32;10.80;;;9.70;;
3708;SDS011;1870;53.996;10.784;2023-05-10T14:03:58;11.00;;;9.40;;
3708;SDS011;1870;53.996;10.784;2023-05-10T14:06:24;15.03;;;10.90;;
3708;SDS011;1870;53.996;10.784;2023-05-10T14:08:51;10.13;;;9.10;;
3708;SDS011;1870;53.996;10.784;2023-05-10T14:11:17;12.47;;;10.90;;
3708;SDS011;1870;53.996;10.784;2023-05-10T14:13:42;16.00;;;11.43;;
3708;SDS011;1870;53.996;10.784;2023-05-10T14:16:08;12.40;;;10.90;;
3708;SDS011;1870;53.996;10.784;2023-05-10T14:18:33;12.80;;;10.50;;
3708;SDS011;1870;53.996;10.784;2023-05-10T14:20:59;13.37;;;10.20;;
3708;SDS011;1870;53.996;10.784;2023-05-10T14:23:25;11.53;;;10.37;;
3708;SDS011;1870;53.996;10.784;2023-05-10T14:25:51;12.37;;;11.10;;
3708;SDS011;1870;53.996;10.784;2023-05-10T14:28:17;11.97;;;10.77;;
3708;SDS011;1870;53.996;10.784;2023-05-10T14:30:43;12.63;;;10.60;;
3708;SDS011;1870;53.996;10.784;2023-05-10T14:33:09;10.37;;;9.37;;
3708;SDS011;1870;53.996;10.784;2023-05-10T14:35:35;12.60;;;9.63;;
3708;SDS011;1870;53.996;10.784;2023-05-10T14:38:01;15.33;;;9.70;;
3708;SDS011;1870;53.996;10.784;2023-05-10T14:40:28;13.30;;;10.10;;
3708;SDS011;1870;53.996;10.784;2023-05-10T14:42:54;13.47;;;9.43;;
3708;SDS011;1870;53.996;10.784;2023-05-10T14:45:21;10.20;;;9.17;;
3708;SDS011;1870;53.996;10.784;2023-05-10T14:47:47;12.00;;;10.07;;
3708;SDS011;1870;53.996;10.784;2023-05-10T14:50:13;11.13;;;10.13;;
3708;SDS011;1870;53.996;10.784;2023-05-10T14:52:39;10.23;;;9.23;;
3708;SDS011;1870;53.996;10.784;2023-05-10T14:55:05;12.70;;;10.00;;
3708;SDS011;1870;53.996;10.784;2023-05-10T14:57:31;10.30;;;9.20;;
3708;SDS011;1870;53.996;10.784;2023-05-10T14:59:57;12.00;;;8.90;;
3708;SDS011;1870;53.996;10.784;2023-05-10T15:02:23;11.03;;;8.50;;
3708;SDS011;1870;53.996;10.784;2023-05-10T15:04:48;15.30;;;8.57;;
3708;SDS011;1870;53.996;10.784;2023-05-10T15:07:17;11.53;;;9.80;;
3708;SDS011;1870;53.996;10.784;2023-05-10T15:09:43;13.40;;;10.10;;
3708;SDS011;1870;53.996;10.784;2023-05-10T15:12:09;14.60;;;9.80;;
3708;SDS011;1870;53.996;10.784;2023-05-10T15:14:35;12.93;;;9.87;;
3708;SDS011;1870;53.996;10.784;2023-05-10T15:17:01;9.90;;;8.87;;
3708;SDS011;1870;53.996;10.784;2023-05-10T15:19:27;11.03;;;9.53;;
3708;SDS011;1870;53.996;10.784;2023-05-10T15:21:54;11.67;;;10.00;;
3708;SDS011;1870;53.996;10.784;2023-05-10T15:24:20;11.27;;;10.13;;
3708;SDS011;1870;53.996;10.784;2023-05-10T15:26:46;11.53;;;10.27;;
3708;SDS011;1870;53.996;10.784;2023-05-10T15:29:12;10.20;;;9.20;;
3708;SDS011;1870;53.996;10.784;2023-05-10T15:31:44;11.13;;;9.70;;
3708;SDS011;1870;53.996;10.784;2023-05-10T15:34:11;15.73;;;10.10;;
3708;SDS011;1870;53.996;10.784;2023-05-10T15:36:36;11.10;;;10.07;;
3708;SDS011;1870;53.996;10.784;2023-05-10T15:39:02;13.33;;;9.63;;
3708;SDS011;1870;53.996;10.784;2023-05-10T15:41:28;10.40;;;9.40;;